Time;durP1;ratioP1;P1;durP2;ratioP2;P2;SDS_P1;SDS_P2;PMS_P1;PMS_P2;Temp;Humidity;BMP_temperature;BMP_pressure;BME280_temperature;BME280_humidity;BME280_pressure;Samples;Min_cycle;Max_cycle;Signal;HPM_P1;HPM_P2
2021/09/07 00:00:04;;;;;;;7.85;3.85;;;;;;;28.41;34.35;97325.06;4973144;28;20049;-29
2021/09/07 00:02:30;;;;;;;4.40;4.00;;;;;;;28.42;34.12;97326.75;4973522;28;20041;-29
2021/09/07 00:04:56;;;;;;;6.35;3.95;;;;;;;28.42;34.26;97320.66;4976337;28;20034;-28
2021/09/07 00:07:22;;;;;;;4.75;3.95;;;;;;;28.40;34.28;97320.75;4980006;28;20049;-28
2021/09/07 00:09:48;;;;;;;6.00;4.03;;;;;;;28.41;34.27;97325.06;4975366;28;20026;-30
2021/09/07 00:12:13;;;;;;;4.75;3.83;;;;;;;28.40;34.12;97318.09;4976390;28;20049;-28
2021/09/07 00:14:39;;;;;;;6.28;4.00;;;;;;;28.41;34.08;97324.22;4968851;28;20069;-29
2021/09/07 00:17:04;;;;;;;4.82;3.72;;;;;;;28.41;34.00;97313.66;4972031;28;20622;-29
2021/09/07 00:19:30;;;;;;;4.50;3.50;;;;;;;28.40;34.16;97323.38;4971288;28;20025;-29
2021/09/07 00:21:55;;;;;;;4.68;3.90;;;;;;;28.40;34.09;97322.50;4971133;28;20037;-28
2021/09/07 00:24:21;;;;;;;4.65;3.92;;;;;;;28.39;34.15;97311.13;4952793;28;20384;-29
2021/09/07 00:26:46;;;;;;;8.38;4.25;;;;;;;28.40;34.03;97317.25;4975501;28;20271;-28
2021/09/07 00:29:11;;;;;;;4.72;3.72;;;;;;;28.39;34.14;97311.13;4973411;28;20065;-28
2021/09/07 00:31:37;;;;;;;6.78;4.05;;;;;;;28.38;33.97;97309.41;4972657;28;20038;-28
2021/09/07 00:34:02;;;;;;;5.53;3.92;;;;;;;28.40;33.96;97317.25;4971086;28;20032;-30
2021/09/07 00:36:27;;;;;;;4.60;3.80;;;;;;;28.39;33.97;97315.56;4978523;28;20172;-29
2021/09/07 00:38:53;;;;;;;6.55;4.07;;;;;;;28.39;34.16;97311.13;4975874;28;20026;-28
2021/09/07 00:41:18;;;;;;;5.10;4.03;;;;;;;28.39;33.95;97311.13;4974947;28;20443;-29
2021/09/07 00:43:44;;;;;;;4.80;3.95;;;;;;;28.39;33.85;97307.63;4975124;28;20037;-27
2021/09/07 00:46:09;;;;;;;6.03;3.88;;;;;;;28.38;33.78;97304.16;4972679;28;20038;-29
2021/09/07 00:48:36;;;;;;;3.92;3.35;;;;;;;28.39;33.92;97305.88;4972881;28;20112;-29
2021/09/07 00:51:01;;;;;;;5.13;3.58;;;;;;;28.39;33.92;97308.50;4990586;28;20044;-28
2021/09/07 00:53:26;;;;;;;5.13;3.88;;;;;;;28.38;34.05;97304.16;4975999;28;20030;-28
2021/09/07 00:55:52;;;;;;;4.70;3.65;;;;;;;28.36;33.97;97300.75;4972717;28;20049;-29
2021/09/07 00:58:17;;;;;;;5.25;3.70;;;;;;;28.38;33.86;97303.31;4965683;28;20023;-28
2021/09/07 01:00:43;;;;;;;4.63;3.40;;;;;;;28.37;33.73;97310.34;4970130;28;20623;-28
2021/09/07 01:03:08;;;;;;;5.35;3.80;;;;;;;28.39;33.86;97310.28;4973418;28;20508;-28
2021/09/07 01:05:34;;;;;;;6.53;3.65;;;;;;;28.37;33.78;97318.25;4970923;28;20038;-29
2021/09/07 01:08:00;;;;;;;5.00;3.75;;;;;;;28.36;33.95;97306.03;4984585;28;20037;-28
2021/09/07 01:10:25;;;;;;;4.20;3.45;;;;;;;28.38;33.90;97308.59;4979379;28;20022;-30
2021/09/07 01:12:50;;;;;;;4.00;3.60;;;;;;;28.36;33.75;97310.44;4979759;28;20042;-29
2021/09/07 01:15:16;;;;;;;4.60;3.70;;;;;;;28.36;33.84;97306.03;4976080;28;20026;-28
2021/09/07 01:17:41;;;;;;;5.03;3.80;;;;;;;28.36;34.06;97303.41;4974484;28;20068;-29
2021/09/07 01:20:07;;;;;;;4.68;3.60;;;;;;;28.37;33.88;97306.88;4986695;28;20030;-28
2021/09/07 01:22:33;;;;;;;8.55;3.70;;;;;;;28.36;33.87;97306.03;4974183;28;20354;-29
2021/09/07 01:24:58;;;;;;;5.05;3.70;;;;;;;28.36;33.67;97305.16;4979487;28;20045;-28
2021/09/07 01:27:23;;;;;;;4.45;3.90;;;;;;;28.36;33.97;97298.13;4972401;28;20049;-29
2021/09/07 01:29:49;;;;;;;4.07;3.58;;;;;;;28.36;33.86;97297.25;4975244;28;20042;-29
2021/09/07 01:32:15;;;;;;;4.10;3.70;;;;;;;28.36;33.69;97298.13;4973597;28;20329;-29
2021/09/07 01:34:41;;;;;;;4.00;3.60;;;;;;;28.35;33.85;97296.44;4983031;28;20034;-29
2021/09/07 01:37:06;;;;;;;8.88;3.88;;;;;;;28.36;33.68;97299.91;4979518;28;20038;-29
2021/09/07 01:39:32;;;;;;;5.57;4.00;;;;;;;28.35;33.89;97292.94;4979736;28;20030;-31
2021/09/07 01:41:57;;;;;;;5.32;3.70;;;;;;;28.33;33.61;97295.66;4974745;28;20901;-29
2021/09/07 01:44:22;;;;;;;6.35;3.45;;;;;;;28.35;33.76;97303.47;4979251;28;22564;-29
2021/09/07 01:46:48;;;;;;;5.03;3.85;;;;;;;28.34;33.83;97299.97;4952955;28;20547;-29
2021/09/07 01:49:14;;;;;;;4.88;3.58;;;;;;;28.34;33.55;97302.63;4966379;28;20034;-28
2021/09/07 01:51:40;;;;;;;4.43;3.65;;;;;;;28.34;33.85;97299.16;4976480;28;20034;-30
2021/09/07 01:54:06;;;;;;;4.85;3.85;;;;;;;28.33;33.62;97290.38;4976041;28;20026;-29
2021/09/07 01:56:31;;;;;;;5.88;4.10;;;;;;;28.34;33.98;97291.25;4975517;28;20034;-28
2021/09/07 01:58:57;;;;;;;5.03;3.58;;;;;;;28.34;34.03;97291.25;4980173;28;20030;-29
2021/09/07 02:01:22;;;;;;;4.78;3.92;;;;;;;28.35;34.07;97280.63;4983296;28;20037;-30
2021/09/07 02:03:47;;;;;;;4.70;3.80;;;;;;;28.34;33.86;97288.59;4978371;28;20033;-30
2021/09/07 02:06:13;;;;;;;11.75;4.10;;;;;;;28.34;33.67;97292.06;4980634;28;20147;-30
2021/09/07 02:08:38;;;;;;;5.70;3.60;;;;;;;28.32;33.83;97278.13;4976646;28;20037;-28
2021/09/07 02:11:04;;;;;;;6.40;3.85;;;;;;;28.34;33.54;97281.53;4976763;28;20038;-27
2021/09/07 02:13:29;;;;;;;4.50;3.53;;;;;;;28.31;33.78;97287.00;4974575;28;20527;-29
2021/09/07 02:15:54;;;;;;;4.57;3.92;;;;;;;28.34;33.66;97285.97;4981277;28;20034;-32
2021/09/07 02:18:20;;;;;;;5.00;3.70;;;;;;;28.31;33.67;97281.72;4972251;28;20034;-27
2021/09/07 02:20:45;;;;;;;4.43;3.78;;;;;;;28.32;33.65;97283.41;4976019;28;20034;-28
2021/09/07 02:23:11;;;;;;;4.95;3.85;;;;;;;28.33;33.48;97279.84;4974466;28;20041;-29
2021/09/07 02:25:36;;;;;;;4.50;3.28;;;;;;;28.32;33.61;97282.56;4976260;28;20030;-28
2021/09/07 02:28:02;;;;;;;5.18;3.70;;;;;;;28.31;33.48;97281.72;4979446;28;20049;-29
2021/09/07 02:30:28;;;;;;;5.25;3.70;;;;;;;28.31;33.55;97281.72;4976707;28;20046;-29
2021/09/07 02:32:55;;;;;;;4.75;3.70;;;;;;;28.30;33.52;97274.75;4970201;28;20033;-31
2021/09/07 02:35:21;;;;;;;5.38;3.65;;;;;;;28.31;33.51;97276.44;4980403;28;20034;-29
2021/09/07 02:37:46;;;;;;;5.15;3.60;;;;;;;28.29;33.49;97279.16;4977307;28;20041;-28
2021/09/07 02:40:12;;;;;;;4.47;3.70;;;;;;;28.30;33.63;97277.41;4977106;28;20080;-31
2021/09/07 02:42:37;;;;;;;4.78;3.80;;;;;;;28.29;33.63;97275.66;4974295;28;20536;-30
2021/09/07 02:45:03;;;;;;;4.95;3.80;;;;;;;28.29;33.60;97279.16;4976570;28;20804;-30
2021/09/07 02:47:28;;;;;;;3.90;3.50;;;;;;;28.30;33.58;97285.31;4972835;28;20500;-29
2021/09/07 02:49:54;;;;;;;5.95;3.50;;;;;;;28.28;33.48;97279.25;4974893;28;20045;-28
2021/09/07 02:52:19;;;;;;;4.32;3.50;;;;;;;28.28;33.46;97280.09;4978343;28;20030;-28
2021/09/07 02:54:45;;;;;;;4.82;4.00;;;;;;;28.27;33.54;97280.19;4976902;28;20026;-28
2021/09/07 02:57:10;;;;;;;5.95;3.67;;;;;;;28.29;33.39;97283.56;4972848;28;20042;-29
2021/09/07 02:59:35;;;;;;;5.03;3.72;;;;;;;28.28;33.57;97281.88;4979358;28;20034;-29
2021/09/07 03:02:01;;;;;;;5.53;3.75;;;;;;;28.28;33.54;97287.16;4972033;28;20056;-30
2021/09/07 03:04:26;;;;;;;4.32;3.60;;;;;;;28.27;33.36;97281.03;4974252;28;20034;-29
2021/09/07 03:06:52;;;;;;;5.38;3.75;;;;;;;28.27;33.58;97281.03;4972678;28;20704;-29
2021/09/07 03:09:17;;;;;;;6.88;3.65;;;;;;;28.28;33.43;97276.63;4980000;28;20041;-29
2021/09/07 03:11:42;;;;;;;3.78;3.15;;;;;;;28.27;33.48;97281.03;4975333;28;22699;-29
2021/09/07 03:14:08;;;;;;;5.75;3.92;;;;;;;28.26;33.46;97274.06;4981396;28;20041;-29
2021/09/07 03:16:34;;;;;;;4.95;4.00;;;;;;;28.26;33.52;97274.06;4969510;28;20040;-30
2021/09/07 03:19:00;;;;;;;4.88;3.55;;;;;;;28.23;33.38;97262.81;4976924;28;20356;-29
2021/09/07 03:21:26;;;;;;;4.47;3.65;;;;;;;28.27;33.31;97274.91;4974339;28;20152;-29
2021/09/07 03:23:51;;;;;;;6.68;3.70;;;;;;;28.27;33.44;97269.66;4974278;28;20038;-30
2021/09/07 03:26:17;;;;;;;5.03;3.70;;;;;;;28.26;33.41;97268.78;4978001;28;20030;-28
2021/09/07 03:28:42;;;;;;;4.95;3.50;;;;;;;28.25;33.53;97263.56;4976259;28;20033;-28
2021/09/07 03:31:07;;;;;;;4.60;3.80;;;;;;;28.25;33.39;97260.94;4973225;28;20444;-29
2021/09/07 03:33:33;;;;;;;7.00;3.97;;;;;;;28.24;33.35;97264.50;4971631;28;20033;-29
2021/09/07 03:35:58;;;;;;;5.03;3.70;;;;;;;28.24;33.36;97265.38;4972509;28;20038;-28
2021/09/07 03:38:24;;;;;;;4.55;3.75;;;;;;;28.24;33.14;97260.09;4975161;28;20787;-29
2021/09/07 03:40:49;;;;;;;5.00;4.13;;;;;;;28.24;33.28;97248.69;4979336;28;20034;-29
2021/09/07 03:43:14;;;;;;;5.30;3.63;;;;;;;28.23;33.34;97261.03;4974274;28;20026;-30
2021/09/07 03:45:41;;;;;;;4.45;3.60;;;;;;;28.23;33.29;97263.69;4976766;28;20029;-29
2021/09/07 03:48:06;;;;;;;4.75;3.53;;;;;;;28.24;33.21;97259.22;4971801;28;20099;-31
2021/09/07 03:50:32;;;;;;;5.90;3.85;;;;;;;28.24;33.29;97261.88;4976478;28;20481;-29
2021/09/07 03:52:57;;;;;;;4.75;3.45;;;;;;;28.23;33.04;97252.28;4975425;28;20031;-29
2021/09/07 03:55:22;;;;;;;7.45;3.78;;;;;;;28.23;33.36;97252.28;4971988;28;20051;-29
2021/09/07 03:57:48;;;;;;;5.93;3.78;;;;;;;28.22;33.31;97247.94;4973676;28;20038;-30
2021/09/07 04:00:14;;;;;;;4.25;3.45;;;;;;;28.21;33.37;97238.31;4971607;28;20038;-29
2021/09/07 04:02:39;;;;;;;5.68;3.63;;;;;;;28.20;33.10;97242.75;4970989;28;20018;-29
2021/09/07 04:05:06;;;;;;;4.03;3.53;;;;;;;28.20;33.03;97248.03;4971677;28;20108;-29
2021/09/07 04:07:31;;;;;;;3.78;3.20;;;;;;;28.21;33.05;97246.22;4969220;28;20026;-28
2021/09/07 04:09:56;;;;;;;6.20;3.53;;;;;;;28.20;33.07;97242.75;4965495;28;20056;-29
2021/09/07 04:12:22;;;;;;;6.05;4.03;;;;;;;28.20;33.29;97249.81;4969434;28;20048;-28
2021/09/07 04:14:47;;;;;;;3.67;3.20;;;;;;;28.19;33.40;97248.97;4971078;28;20030;-29
2021/09/07 04:17:13;;;;;;;5.07;3.95;;;;;;;28.20;33.33;97241.91;4968003;28;20428;-29
2021/09/07 04:19:42;;;;;;;6.03;3.80;;;;;;;28.20;33.33;97241.91;4972338;28;20405;-28
2021/09/07 04:22:07;;;;;;;5.63;3.30;;;;;;;28.18;33.34;97250.75;4974677;28;20026;-30
2021/09/07 04:24:32;;;;;;;4.40;3.63;;;;;;;28.20;33.28;97257.72;4973510;28;20025;-28
2021/09/07 04:26:58;;;;;;;4.78;3.22;;;;;;;28.17;33.30;97254.31;4972959;28;20053;-28
2021/09/07 04:29:24;;;;;;;3.78;3.33;;;;;;;28.18;33.15;97261.28;4978219;28;20536;-29
2021/09/07 04:31:49;;;;;;;4.75;3.83;;;;;;;28.18;33.19;97255.16;4977828;28;20112;-29
2021/09/07 04:34:14;;;;;;;3.90;3.50;;;;;;;28.17;33.09;97259.59;4970326;28;20030;-29
2021/09/07 04:36:40;;;;;;;4.38;3.60;;;;;;;28.17;33.21;97251.69;4978857;28;20122;-32
2021/09/07 04:39:05;;;;;;;4.20;3.63;;;;;;;28.17;33.14;97251.69;4968747;28;20493;-29
2021/09/07 04:41:31;;;;;;;4.07;3.33;;;;;;;28.15;33.27;97253.53;4978215;28;20033;-29
2021/09/07 04:43:57;;;;;;;5.68;3.72;;;;;;;28.17;33.23;97251.69;4974660;28;20078;-30
2021/09/07 04:46:22;;;;;;;5.00;3.13;;;;;;;28.17;33.19;97254.31;4978478;28;20469;-29
2021/09/07 04:48:53;;;;;;;6.72;3.55;;;;;;;28.17;33.08;97258.72;4982205;28;20033;-28
2021/09/07 04:51:19;;;;;;;5.97;3.60;;;;;;;28.16;33.14;97257.91;4968737;28;20069;-26
2021/09/07 04:53:44;;;;;;;5.28;3.80;;;;;;;28.16;33.23;97259.66;4967234;28;20038;-33
2021/09/07 04:56:09;;;;;;;3.92;3.55;;;;;;;28.16;33.15;97268.44;4976196;28;20029;-27
2021/09/07 04:58:35;;;;;;;4.07;3.20;;;;;;;28.17;33.00;97264.00;4967348;28;20038;-30
2021/09/07 05:01:00;;;;;;;4.43;3.60;;;;;;;28.15;33.15;97261.44;4976719;28;20602;-30
2021/09/07 05:03:26;;;;;;;4.60;3.20;;;;;;;28.13;33.02;97255.44;4978642;28;20986;-28
2021/09/07 05:05:51;;;;;;;6.55;3.53;;;;;;;28.15;33.12;97266.72;4977586;28;20038;-29
2021/09/07 05:08:17;;;;;;;7.90;3.83;;;;;;;28.15;33.04;97271.16;4973526;28;20081;-30
2021/09/07 05:10:42;;;;;;;5.30;3.55;;;;;;;28.14;32.96;97267.66;4983112;28;20937;-29
2021/09/07 05:13:07;;;;;;;3.42;3.13;;;;;;;28.14;33.08;97278.19;4975159;28;20026;-32
2021/09/07 05:15:33;;;;;;;4.97;3.72;;;;;;;28.13;33.02;97273.88;4978445;28;20037;-30
2021/09/07 05:17:58;;;;;;;5.45;3.63;;;;;;;28.14;33.07;97278.19;4979182;28;20618;-29
2021/09/07 05:20:24;;;;;;;6.80;3.80;;;;;;;28.13;32.93;97279.13;4979105;28;20030;-29
2021/09/07 05:22:49;;;;;;;4.38;3.17;;;;;;;28.12;33.08;97277.44;4975071;28;20092;-28
2021/09/07 05:25:15;;;;;;;4.75;3.47;;;;;;;28.13;33.13;97279.13;4983024;28;20045;-31
2021/09/07 05:27:40;;;;;;;4.65;3.60;;;;;;;28.13;32.95;97280.91;4981564;28;20532;-29
2021/09/07 05:30:07;;;;;;;4.57;3.50;;;;;;;28.13;33.22;97279.13;4982449;28;20045;-29
2021/09/07 05:32:32;;;;;;;6.68;3.90;;;;;;;28.13;33.11;97284.41;4970861;28;20029;-33
2021/09/07 05:34:58;;;;;;;4.03;3.53;;;;;;;28.12;33.09;97276.59;4976661;28;20027;-32
2021/09/07 05:37:23;;;;;;;5.38;3.63;;;;;;;28.12;32.94;97277.44;4972292;28;20038;-28
2021/09/07 05:39:49;;;;;;;6.60;3.80;;;;;;;28.11;33.07;97275.72;4978778;28;20030;-28
2021/09/07 05:42:14;;;;;;;4.18;3.53;;;;;;;28.12;33.15;97280.09;4961227;28;20027;-29
2021/09/07 05:44:39;;;;;;;5.65;3.90;;;;;;;28.11;33.07;97286.25;4974004;28;20022;-30
2021/09/07 05:47:05;;;;;;;3.83;3.53;;;;;;;28.11;33.05;97278.34;4966995;28;20042;-30
2021/09/07 05:49:31;;;;;;;5.15;3.80;;;;;;;28.12;33.11;97287.97;4973300;28;20721;-29
2021/09/07 05:51:57;;;;;;;6.43;4.05;;;;;;;28.11;33.22;97291.53;4974392;28;20738;-27
2021/09/07 05:54:22;;;;;;;4.30;3.70;;;;;;;28.11;33.06;97299.44;4982079;28;20033;-29
2021/09/07 05:56:48;;;;;;;5.72;3.90;;;;;;;28.11;33.02;97296.81;4976029;28;20030;-29
2021/09/07 05:59:13;;;;;;;4.25;3.63;;;;;;;28.11;33.03;97296.81;4970045;28;20558;-30
2021/09/07 06:01:39;;;;;;;4.75;3.85;;;;;;;28.10;33.09;97297.75;4977215;28;20660;-30
2021/09/07 06:04:04;;;;;;;4.55;3.45;;;;;;;28.11;33.14;97301.25;4979972;28;20037;-28
2021/09/07 06:06:30;;;;;;;4.03;3.38;;;;;;;28.11;33.13;97304.69;4971899;28;20030;-29
2021/09/07 06:08:55;;;;;;;5.45;3.60;;;;;;;28.10;32.98;97308.28;4976040;28;20567;-29
2021/09/07 06:11:21;;;;;;;4.47;3.42;;;;;;;28.11;33.17;97309.16;4976285;28;20593;-27
2021/09/07 06:13:46;;;;;;;5.00;3.88;;;;;;;28.11;33.08;97312.59;4973000;28;20022;-28
2021/09/07 06:16:15;;;;;;;6.18;3.65;;;;;;;28.11;33.08;97312.59;4971849;28;21116;-28
2021/09/07 06:18:40;;;;;;;4.40;3.72;;;;;;;28.11;33.01;97315.25;4974984;28;20034;-34
2021/09/07 06:21:06;;;;;;;4.30;3.20;;;;;;;28.11;33.17;97312.59;4974976;28;20755;-28
2021/09/07 06:23:31;;;;;;;5.72;3.92;;;;;;;28.10;33.23;97310.91;4968468;28;20532;-28
2021/09/07 06:25:58;;;;;;;6.40;4.13;;;;;;;28.10;33.17;97313.56;4970422;28;20601;-30
2021/09/07 06:28:25;;;;;;;4.30;3.70;;;;;;;28.11;33.20;97317.06;4967385;28;20053;-28
2021/09/07 06:30:50;;;;;;;5.00;3.80;;;;;;;28.10;33.40;97313.56;4961243;28;20113;-30
2021/09/07 06:33:16;;;;;;;6.75;3.92;;;;;;;28.10;33.37;97310.91;4966164;28;20041;-29
2021/09/07 06:35:41;;;;;;;5.47;4.22;;;;;;;28.11;33.40;97307.34;4967739;28;20041;-28
2021/09/07 06:38:06;;;;;;;10.40;4.80;;;;;;;28.11;33.57;97312.59;4976859;28;20038;-29
2021/09/07 06:40:32;;;;;;;19.20;7.38;;;;;;;28.11;33.56;97312.59;4968464;28;20026;-29
2021/09/07 06:42:57;;;;;;;19.50;7.78;;;;;;;28.09;33.26;97303.94;4970324;28;20034;-28
2021/09/07 06:45:23;;;;;;;20.63;6.93;;;;;;;28.07;33.01;97313.72;4972288;28;20735;-28
2021/09/07 06:47:48;;;;;;;14.27;6.75;;;;;;;28.06;32.88;97321.72;4971637;28;20045;-28
2021/09/07 06:50:14;;;;;;;15.10;6.82;;;;;;;28.01;32.65;97311.41;4975423;28;20041;-30
2021/09/07 06:52:39;;;;;;;10.05;5.50;;;;;;;27.98;32.84;97301.03;4970910;28;20030;-28
2021/09/07 06:55:05;;;;;;;14.25;5.95;;;;;;;27.95;33.00;97314.41;4972407;28;20026;-30
2021/09/07 06:57:30;;;;;;;11.68;5.65;;;;;;;27.94;32.92;97310.03;4964180;28;20970;-29
2021/09/07 06:59:56;;;;;;;11.95;6.00;;;;;;;27.92;32.92;97318.88;4967595;28;20045;-28
2021/09/07 07:02:22;;;;;;;16.85;6.10;;;;;;;27.90;33.00;97315.50;4968393;28;20841;-28
2021/09/07 07:04:48;;;;;;;14.35;6.38;;;;;;;27.90;32.81;97314.63;4974529;28;20057;-29
2021/09/07 07:07:13;;;;;;;19.35;7.45;;;;;;;27.88;32.85;97309.44;4969484;28;20422;-29
2021/09/07 07:09:38;;;;;;;11.45;6.82;;;;;;;27.86;32.80;97316.59;4973459;28;20500;-29
2021/09/07 07:12:04;;;;;;;22.40;6.35;;;;;;;27.84;32.98;97321.06;4972268;28;20022;-30
2021/09/07 07:14:30;;;;;;;15.30;6.07;;;;;;;27.82;33.23;97322.94;4971942;28;20033;-29
2021/09/07 07:16:55;;;;;;;11.30;6.43;;;;;;;27.81;33.02;97318.63;4972296;28;20034;-28
2021/09/07 07:19:21;;;;;;;14.18;6.63;;;;;;;27.81;33.14;97320.38;4971782;28;20034;-29
2021/09/07 07:21:49;;;;;;;28.67;7.10;;;;;;;27.79;33.33;97323.09;4970196;28;20404;-29
2021/09/07 07:24:16;;;;;;;23.67;7.65;;;;;;;27.80;33.23;97323.97;4954145;28;20535;-29
2021/09/07 07:26:42;;;;;;;19.00;6.70;;;;;;;27.79;33.31;97323.09;4975952;28;20037;-27
2021/09/07 07:29:08;;;;;;;22.67;7.03;;;;;;;27.73;33.39;97312.91;4973491;28;20729;-28
2021/09/07 07:31:34;;;;;;;26.60;5.93;;;;;;;27.76;33.69;97321.47;4968172;28;20042;-30
2021/09/07 07:33:59;;;;;;;32.08;6.95;;;;;;;27.78;33.72;97326.69;4965961;28;20023;-27
2021/09/07 07:36:24;;;;;;;24.70;7.63;;;;;;;27.80;33.79;97324.78;4972295;28;20042;-29
2021/09/07 07:38:50;;;;;;;18.48;7.15;;;;;;;27.80;33.73;97327.44;4971671;28;20034;-28
2021/09/07 07:41:15;;;;;;;23.90;7.70;;;;;;;27.78;33.76;97321.41;4968669;28;20030;-29
2021/09/07 07:43:44;;;;;;;16.95;7.55;;;;;;;27.78;33.79;97342.47;4970333;28;20049;-30
2021/09/07 07:46:14;;;;;;;15.68;7.80;;;;;;;27.75;33.95;97335.59;4970803;28;22861;-28
2021/09/07 07:48:40;;;;;;;12.02;7.00;;;;;;;27.75;33.93;97342.63;4970519;28;20033;-28
2021/09/07 07:51:07;;;;;;;19.73;7.97;;;;;;;27.75;34.13;97342.63;4970788;28;20030;-30
2021/09/07 07:53:33;;;;;;;13.75;7.97;;;;;;;27.76;34.14;97355.72;4967246;28;20038;-29
2021/09/07 07:55:58;;;;;;;13.55;7.43;;;;;;;27.76;34.19;97355.72;4972401;28;20345;-29
2021/09/07 07:58:24;;;;;;;14.45;6.63;;;;;;;27.76;34.26;97344.31;4969827;28;20366;-28
2021/09/07 08:00:49;;;;;;;12.82;6.93;;;;;;;27.78;34.23;97347.75;4969409;28;20592;-29
2021/09/07 08:03:14;;;;;;;16.27;7.13;;;;;;;27.78;34.13;97343.34;4972695;28;20022;-30
2021/09/07 08:05:40;;;;;;;14.70;7.30;;;;;;;27.76;34.26;97347.81;4970029;28;20064;-29
2021/09/07 08:08:07;;;;;;;14.77;6.65;;;;;;;27.77;34.16;97356.59;4954682;28;20026;-28
2021/09/07 08:10:33;;;;;;;13.45;7.78;;;;;;;27.77;34.44;97353.94;4969552;28;20037;-28
2021/09/07 08:12:58;;;;;;;13.75;7.82;;;;;;;27.77;34.41;97356.59;4953157;28;20057;-30
2021/09/07 08:15:24;;;;;;;15.43;8.13;;;;;;;27.75;34.42;97342.63;4970535;28;20030;-28
2021/09/07 08:17:50;;;;;;;18.17;9.85;;;;;;;27.73;34.28;97342.72;4970771;28;20068;-28
2021/09/07 08:20:15;;;;;;;15.80;8.85;;;;;;;27.74;34.19;97341.78;4972629;28;20025;-28
2021/09/07 08:22:41;;;;;;;15.80;8.68;;;;;;;27.74;34.13;97340.94;4972936;28;20124;-34
2021/09/07 08:25:07;;;;;;;18.05;8.30;;;;;;;27.72;34.16;97348.06;4970616;28;20030;-29
2021/09/07 08:27:32;;;;;;;13.98;8.30;;;;;;;27.70;34.40;97348.16;4975475;28;20068;-30
2021/09/07 08:29:58;;;;;;;14.27;7.75;;;;;;;27.71;34.32;97343.72;4971614;28;20034;-29
2021/09/07 08:32:23;;;;;;;14.50;8.18;;;;;;;27.70;34.45;97340.25;4967395;28;20030;-29
2021/09/07 08:34:48;;;;;;;11.77;7.43;;;;;;;27.72;34.22;97337.53;4965560;28;20030;-30
2021/09/07 08:37:14;;;;;;;14.85;7.47;;;;;;;27.74;34.38;97340.94;4967575;28;20057;-29
2021/09/07 08:39:39;;;;;;;13.38;7.32;;;;;;;27.75;34.33;97338.22;4965651;28;20401;-29
2021/09/07 08:42:09;;;;;;;11.27;7.20;;;;;;;27.77;33.80;97340.78;4966621;28;20057;-29
2021/09/07 08:44:34;;;;;;;11.05;7.63;;;;;;;27.76;33.37;97333.78;4964734;28;20956;-29
2021/09/07 08:47:01;;;;;;;15.80;7.53;;;;;;;27.80;33.46;97340.59;4947791;28;20101;-30
2021/09/07 08:49:26;;;;;;;12.73;6.53;;;;;;;27.81;33.32;97339.69;4963501;28;20042;-27
2021/09/07 08:51:52;;;;;;;9.93;6.78;;;;;;;27.83;32.96;97336.94;4967171;28;20037;-30
2021/09/07 08:54:18;;;;;;;11.52;7.10;;;;;;;27.85;33.04;97345.63;4971105;28;20030;-28
2021/09/07 08:56:43;;;;;;;9.50;7.13;;;;;;;27.85;32.86;97341.22;4971233;28;20050;-27
2021/09/07 08:59:09;;;;;;;8.95;6.75;;;;;;;27.86;32.98;97340.28;4949470;28;20030;-29
2021/09/07 09:01:42;;;;;;;28.92;7.68;;;;;;;27.88;33.14;97343.69;4951280;28;20041;-29
2021/09/07 09:04:24;;;;;;;13.80;7.18;;;;;;;27.91;33.36;97343.53;4963077;28;20034;-28
2021/09/07 09:06:49;;;;;;;18.70;6.63;;;;;;;27.94;33.65;97347.78;4964286;28;20030;-27
2021/09/07 09:09:15;;;;;;;16.08;7.43;;;;;;;27.97;33.48;97349.41;4963631;28;20034;-30
2021/09/07 09:11:52;;;;;;;17.05;7.68;;;;;;;28.00;33.60;97357.16;4962044;28;20026;-28
2021/09/07 09:14:36;;;;;;;15.57;7.10;;;;;;;28.03;33.56;97363.09;4966600;28;20393;-29
2021/09/07 09:17:17;;;;;;;16.73;6.88;;;;;;;28.06;33.74;97356.81;4965079;28;20034;-28
2021/09/07 09:20:03;;;;;;;18.60;7.07;;;;;;;28.07;33.64;97358.50;4962250;28;20046;-29
2021/09/07 09:22:54;;;;;;;9.65;6.30;;;;;;;28.09;33.88;97351.38;4967265;28;20022;-29
2021/09/07 09:25:20;;;;;;;23.15;6.82;;;;;;;28.12;34.02;97356.50;4968042;28;20023;-28
2021/09/07 09:27:54;;;;;;;13.52;6.35;;;;;;;28.14;33.93;97354.59;4967715;28;20041;-29
2021/09/07 09:30:24;;;;;;;15.68;6.53;;;;;;;28.15;34.05;97344.94;4972937;28;20038;-29
2021/09/07 09:32:50;;;;;;;11.25;6.15;;;;;;;28.16;33.93;97352.75;4976923;28;20031;-30
2021/09/07 09:35:15;;;;;;;10.88;6.60;;;;;;;28.16;33.75;97350.13;4984710;28;20022;-29
2021/09/07 09:38:01;;;;;;;16.88;6.38;;;;;;;28.18;33.93;97353.50;4983450;28;20066;-28
2021/09/07 09:40:26;;;;;;;12.05;6.38;;;;;;;28.20;33.80;97348.16;4979669;28;20212;-29
2021/09/07 09:42:52;;;;;;;9.10;6.05;;;;;;;28.21;33.97;97344.59;4973637;28;20527;-29
2021/09/07 09:45:18;;;;;;;11.95;6.65;;;;;;;28.22;34.10;97346.28;4977925;28;20097;-28
2021/09/07 09:47:43;;;;;;;8.77;5.47;;;;;;;28.23;34.10;97345.38;4977852;28;20455;-32
2021/09/07 09:50:10;;;;;;;8.52;5.53;;;;;;;28.25;34.11;97342.63;4978485;28;20033;-29
2021/09/07 09:52:37;;;;;;;12.70;5.53;;;;;;;28.26;34.08;97336.47;4973822;28;20028;-29
2021/09/07 09:55:03;;;;;;;8.20;5.88;;;;;;;28.25;34.17;97340.88;4984365;28;20030;-26
2021/09/07 09:57:29;;;;;;;8.70;5.35;;;;;;;28.27;34.26;97340.81;4978063;28;20037;-29
2021/09/07 09:59:54;;;;;;;8.07;5.53;;;;;;;28.29;34.25;97341.56;4971824;28;20034;-29
2021/09/07 10:02:20;;;;;;;8.18;5.65;;;;;;;28.29;33.97;97347.69;4973802;28;20022;-29
2021/09/07 10:04:46;;;;;;;10.45;5.30;;;;;;;28.29;34.14;97339.78;4983599;28;20030;-29
2021/09/07 10:07:11;;;;;;;10.20;5.05;;;;;;;28.30;34.07;97338.00;4975466;28;20033;-29
2021/09/07 10:09:37;;;;;;;8.13;4.78;;;;;;;28.31;34.33;97334.44;4983071;28;20026;-29
2021/09/07 10:12:12;;;;;;;10.25;5.30;;;;;;;28.34;34.29;97338.69;4978380;28;20038;-29
2021/09/07 10:14:40;;;;;;;6.10;5.50;;;;;;;28.34;34.11;97344.78;4960806;28;20113;-29
2021/09/07 10:20:54;;;;;;;5.97;4.90;;;;;;;28.35;34.25;97330.69;4910004;29;20379;-29
2021/09/07 10:23:39;;;;;;;11.48;5.40;;;;;;;28.36;34.17;97336.78;4978193;28;20764;-28
2021/09/07 10:26:05;;;;;;;9.80;5.80;;;;;;;28.37;34.02;97338.53;4978217;28;20572;-29
2021/09/07 10:28:34;;;;;;;8.38;5.45;;;;;;;28.36;33.81;97332.38;4976170;28;20038;-29
2021/09/07 10:31:02;;;;;;;8.55;5.80;;;;;;;28.36;33.22;97327.13;4976485;28;20060;-29
2021/09/07 10:33:31;;;;;;;7.50;5.40;;;;;;;28.36;32.66;97327.13;4973670;28;20139;-29
2021/09/07 10:36:03;;;;;;;9.25;6.45;;;;;;;28.36;32.81;97327.13;4973441;28;20116;-30
2021/09/07 10:38:42;;;;;;;10.88;5.63;;;;;;;28.37;32.81;97334.06;4976665;28;20058;-28
2021/09/07 10:41:08;;;;;;;8.57;5.72;;;;;;;28.37;32.27;97331.44;4973712;28;20030;-29
2021/09/07 10:44:57;;;;;;;7.50;5.45;;;;;;;-148.56;nan;61375.16;4974282;28;20516;-29
2021/09/07 10:48:33;;;;;;;6.65;5.80;;;;;;;-148.56;100.00;61375.16;4972703;28;20045;-28
2021/09/07 10:51:03;;;;;;;6.60;5.70;;;;;;;28.36;31.99;97320.97;4976042;28;20440;-30
2021/09/07 10:53:29;;;;;;;8.32;5.28;;;;;;;28.35;32.25;97321.91;4980041;28;20030;-30
2021/09/07 10:55:54;;;;;;;6.22;5.38;;;;;;;28.36;32.34;97316.56;4978601;28;20060;-29
2021/09/07 10:58:33;;;;;;;7.43;5.63;;;;;;;28.36;32.21;97313.94;4964070;28;20034;-29
2021/09/07 11:01:28;;;;;;;7.10;6.05;;;;;;;28.36;32.26;97308.66;4972108;28;20060;-28
2021/09/07 11:04:33;;;;;;;6.95;5.88;;;;;;;28.37;31.96;97299.81;4984934;28;20064;-28
2021/09/07 11:07:01;;;;;;;7.75;5.80;;;;;;;28.37;32.18;97297.19;4973482;28;20054;-29
2021/09/07 11:09:52;;;;;;;7.25;5.90;;;;;;;28.38;32.26;97296.22;4956265;28;20077;-31
2021/09/07 11:12:24;;;;;;;7.40;5.07;;;;;;;28.38;32.55;97290.97;4978317;28;20057;-29
2021/09/07 11:15:09;;;;;;;7.05;5.85;;;;;;;28.40;32.55;97294.38;4965733;28;20058;-29
2021/09/07 11:17:35;;;;;;;7.60;5.70;;;;;;;28.41;32.39;97289.94;4968380;28;20460;-29
2021/09/07 11:20:06;;;;;;;6.60;5.63;;;;;;;28.40;32.49;97291.75;4961753;28;20033;-29
2021/09/07 11:22:32;;;;;;;6.30;5.20;;;;;;;28.40;32.52;97291.75;4969010;28;20021;-29
2021/09/07 11:25:23;;;;;;;8.10;5.80;;;;;;;28.42;32.43;97283.75;4972527;28;21910;-29
2021/09/07 11:27:49;;;;;;;7.60;5.78;;;;;;;28.42;32.27;97287.22;4970078;28;20124;-29
2021/09/07 11:30:24;;;;;;;7.20;5.50;;;;;;;28.43;32.53;97291.59;4974648;28;20140;-29
2021/09/07 11:32:57;;;;;;;7.05;5.50;;;;;;;28.45;32.72;97272.19;4978322;28;20034;-29
2021/09/07 11:35:22;;;;;;;8.95;5.70;;;;;;;28.45;32.62;97285.38;4972558;28;20034;-29